»·PEaware :: N48427 KLAX-KSAN

N48427 :: KLAX-KSAN

FLIGHT INFORMATION

Flight Status: Arrived
Operator: Privately registered:
United States
More flights under this callsign
Pilot: Brian D. (22974)
Aircraft: Unknown
(P28U)
More flights by this aircraft type
Origin: KLAX Los Angeles Intl
United States
Destination: KSAN San Diego Intl-Lindbergh
United States
More flights between these airports :: More routes between these airports
Route: +
File this flight plan on PilotEdge
Remarks: CAT - 11
Altitude:
(Current/Filed)
5,500ft
Speed:
(Current/Filed)
120kts
Departed: 06-Jan-20 09:44 AM
Arrived: 06-Jan-20 11:03 AM
Distance/Time
Traveled:
95nm/1:18
Distance/Time
To Go:
Arrived

Flight Plot

Page will automatically refresh every two minutes.


Map Options




Map Legend


Flown Route
Filed Route
Departure Airport
Arrival Airport
Navaid (VOR, NDB)
Fix

Horizontal Profiles

Position Reports

Time Latitude Longitude Heading Altitude Ground
Speed
06-Jan-20 09:10 33.934203 -118.394289 175 130ft 0kts
06-Jan-20 09:11 33.934203 -118.394289 175 130ft 0kts
06-Jan-20 09:12 33.934203 -118.394289 175 130ft 0kts
06-Jan-20 09:13 33.934203 -118.394289 175 130ft 0kts
06-Jan-20 09:14 33.934203 -118.394289 175 130ft 0kts
06-Jan-20 09:15 33.934203 -118.394289 175 130ft 0kts
06-Jan-20 09:16 33.934203 -118.394289 175 130ft 0kts
06-Jan-20 09:17 33.934203 -118.394289 175 130ft 0kts
06-Jan-20 09:18 33.934203 -118.394289 175 130ft 0kts
06-Jan-20 09:19 33.934203 -118.394289 175 130ft 0kts
06-Jan-20 09:20 33.934203 -118.394289 175 130ft 0kts
06-Jan-20 09:21 33.934203 -118.394289 175 130ft 0kts
06-Jan-20 09:22 33.934203 -118.394289 175 130ft 0kts
06-Jan-20 09:23 33.934203 -118.394289 175 130ft 0kts
06-Jan-20 09:24 33.934203 -118.394289 175 130ft 0kts
06-Jan-20 09:25 33.934203 -118.394289 175 130ft 0kts
06-Jan-20 09:26 33.934203 -118.394289 175 130ft 0kts
06-Jan-20 09:27 33.934203 -118.394289 175 130ft 0kts
06-Jan-20 09:28 33.934203 -118.394289 175 130ft 0kts
06-Jan-20 09:29 33.934203 -118.394289 175 130ft 0kts
06-Jan-20 09:30 33.934203 -118.394289 175 130ft 0kts
06-Jan-20 09:31 33.934203 -118.394289 175 130ft 0kts
06-Jan-20 09:32 33.934203 -118.394289 175 130ft 0kts
06-Jan-20 09:33 33.934203 -118.394289 175 130ft 0kts
06-Jan-20 09:34 33.934203 -118.394289 175 130ft 0kts
06-Jan-20 09:35 33.934203 -118.394289 175 130ft 0kts
06-Jan-20 09:36 33.934062 -118.394277 175 130ft 5kts
06-Jan-20 09:37 33.934713 -118.393864 5 130ft 8kts
06-Jan-20 09:38 33.935291 -118.390909 82 130ft 10kts
06-Jan-20 09:39 33.935644 -118.387433 82 130ft 11kts
06-Jan-20 09:40 33.936012 -118.383896 82 130ft 11kts
06-Jan-20 09:41 33.936506 -118.382767 2 130ft 0kts
06-Jan-20 09:42 33.937247 -118.383260 279 130ft 13kts
06-Jan-20 09:43 33.935303 -118.402645 261 557ft 98kts
06-Jan-20 09:44 33.926821 -118.439782 251 1283ft 121kts
06-Jan-20 09:45 33.920672 -118.479513 257 2055ft 123kts
06-Jan-20 09:46 33.898477 -118.488034 136 2567ft 124kts
06-Jan-20 09:47 33.876872 -118.459986 130 2971ft 123kts
06-Jan-20 09:48 33.852247 -118.425884 130 2535ft 132kts
06-Jan-20 09:49 33.828670 -118.395242 146 2543ft 122kts
06-Jan-20 09:50 33.798075 -118.378047 156 2544ft 121kts
06-Jan-20 09:51 33.766852 -118.362167 156 2547ft 121kts
06-Jan-20 09:52 33.738775 -118.347895 157 2907ft 114kts
06-Jan-20 09:53 33.712315 -118.328989 137 3452ft 115kts
06-Jan-20 09:54 33.688597 -118.302474 137 4015ft 115kts
06-Jan-20 09:55 33.665096 -118.276196 137 4613ft 117kts
06-Jan-20 09:56 33.641118 -118.249394 137 5177ft 118kts
06-Jan-20 09:57 33.616592 -118.221993 137 5569ft 128kts
06-Jan-20 09:58 33.590355 -118.192687 137 5563ft 128kts
06-Jan-20 09:59 33.564251 -118.163537 137 5563ft 128kts
06-Jan-20 10:00 33.538048 -118.134293 137 5563ft 128kts
06-Jan-20 10:01 33.511886 -118.105112 137 5563ft 128kts
06-Jan-20 10:02 33.485651 -118.075867 137 5563ft 128kts
06-Jan-20 10:03 33.459450 -118.046677 137 5563ft 128kts
06-Jan-20 10:04 33.433281 -118.017540 137 5563ft 128kts
06-Jan-20 10:05 33.407043 -117.988343 137 5563ft 128kts
06-Jan-20 10:06 33.380856 -117.959220 137 5563ft 128kts
06-Jan-20 10:07 33.354649 -117.930094 136 5563ft 128kts
06-Jan-20 10:08 33.328532 -117.901083 136 5563ft 128kts
06-Jan-20 10:09 33.302333 -117.871998 136 5563ft 128kts
06-Jan-20 10:10 33.276118 -117.842913 136 5563ft 128kts
06-Jan-20 10:11 33.249919 -117.813863 136 5563ft 128kts
06-Jan-20 10:12 33.223673 -117.784779 136 5563ft 128kts
06-Jan-20 10:13 33.197494 -117.755786 136 5563ft 128kts
06-Jan-20 10:14 33.171273 -117.726763 136 5563ft 128kts
06-Jan-20 10:15 33.144971 -117.697668 136 5563ft 128kts
06-Jan-20 10:17 33.118727 -117.668654 136 5563ft 128kts
06-Jan-20 10:18 33.092559 -117.639741 136 5563ft 128kts
06-Jan-20 10:19 33.068409 -117.608662 119 5563ft 126kts
06-Jan-20 10:20 33.054108 -117.571887 103 5416ft 123kts
06-Jan-20 10:21 33.046447 -117.531647 96 5067ft 125kts
06-Jan-20 10:22 33.043818 -117.488554 91 4407ft 134kts
06-Jan-20 10:23 33.048372 -117.444568 78 3682ft 134kts
06-Jan-20 10:24 33.055176 -117.402730 78 3567ft 122kts
06-Jan-20 10:25 33.055770 -117.362560 97 3566ft 122kts
06-Jan-20 10:26 33.051254 -117.324779 98 3566ft 122kts
06-Jan-20 10:27 33.046422 -117.284424 98 3566ft 122kts
06-Jan-20 10:28 33.041724 -117.244095 96 3566ft 122kts
06-Jan-20 10:29 33.038618 -117.203407 95 3566ft 122kts
06-Jan-20 10:30 33.035564 -117.162970 95 3566ft 122kts
06-Jan-20 10:31 33.032502 -117.122511 95 3566ft 122kts
06-Jan-20 10:32 33.029434 -117.082051 95 3566ft 122kts
06-Jan-20 10:33 33.026352 -117.041494 95 3566ft 122kts
06-Jan-20 10:34 33.023260 -117.000881 95 3566ft 122kts
06-Jan-20 10:35 33.024494 -116.961338 51 3564ft 122kts
06-Jan-20 10:36 33.056771 -116.950300 10 3566ft 122kts
06-Jan-20 10:37 33.090252 -116.942620 10 3566ft 122kts
06-Jan-20 10:37 33.118260 -116.936180 10 3566ft 122kts
06-Jan-20 10:39 33.152330 -116.943259 283 3566ft 122kts
06-Jan-20 10:40 33.152929 -116.983612 267 3566ft 122kts
06-Jan-20 10:40 33.151720 -117.017355 267 3566ft 122kts
06-Jan-20 10:42 33.150033 -117.064974 267 3566ft 122kts
06-Jan-20 10:42 33.148203 -117.098916 260 3566ft 122kts
06-Jan-20 10:44 33.141197 -117.145556 256 3564ft 117kts
06-Jan-20 10:44 33.134300 -117.175564 247 3566ft 109kts
06-Jan-20 10:45 33.117758 -117.204714 210 3566ft 108kts
06-Jan-20 10:47 33.085456 -117.221058 201 3566ft 108kts
06-Jan-20 10:47 33.062061 -117.231989 201 3566ft 108kts
06-Jan-20 10:48 33.034127 -117.245048 201 3566ft 108kts
06-Jan-20 10:49 33.006001 -117.258205 201 3566ft 108kts
06-Jan-20 10:50 32.978579 -117.271024 200 3566ft 108kts
06-Jan-20 10:51 32.949278 -117.279300 185 3566ft 108kts
06-Jan-20 10:52 32.919113 -117.281123 180 3566ft 108kts
06-Jan-20 10:53 32.890229 -117.279082 167 3566ft 108kts
06-Jan-20 10:54 32.861054 -117.269900 163 3566ft 108kts
06-Jan-20 10:55 32.832055 -117.259569 163 3566ft 108kts
06-Jan-20 10:56 32.803313 -117.249338 163 3566ft 108kts
06-Jan-20 10:57 32.778064 -117.229304 132 3300ft 115kts
06-Jan-20 10:58 32.754915 -117.201371 130 2030ft 128kts
06-Jan-20 10:59 32.747930 -117.174174 102 1675ft 86kts
06-Jan-20 11:00 32.736823 -117.151192 181 1303ft 94kts
06-Jan-20 11:01 32.729904 -117.174868 285 311ft 91kts
06-Jan-20 11:02 32.733721 -117.190405 286 20ft 11kts
06-Jan-20 11:03 32.734855 -117.190385 87 20ft 9kts
06-Jan-20 11:04 32.734072 -117.187048 106 20ft 11kts
06-Jan-20 11:05 32.733206 -117.183466 105 20ft 11kts
06-Jan-20 11:06 32.732182 -117.179225 105 20ft 12kts
06-Jan-20 11:07 32.732189 -117.177006 200 20ft 0kts
06-Jan-20 11:08 32.732189 -117.177006 200 20ft 0kts
06-Jan-20 11:09 32.732189 -117.177006 200 20ft 0kts
06-Jan-20 11:10 32.732189 -117.177006 200 20ft 0kts
06-Jan-20 11:11 32.732189 -117.177006 200 20ft 0kts
06-Jan-20 11:12 32.732189 -117.177006 200 20ft 0kts
06-Jan-20 11:13 32.732189 -117.177006 200 20ft 0kts
06-Jan-20 11:14 32.732189 -117.177006 200 20ft 0kts
06-Jan-20 11:15 32.732189 -117.177006 200 20ft 0kts
06-Jan-20 11:16 32.732189 -117.177006 200 20ft 0kts

Navigation Log

Ident Type
Flight plan parsing failed, navigation log unavailable